Schriever, Louisiana
Current Conditions -  °F | °C
As of 8:55 PM on Friday 19 Dec 2014 (Local Time) from KHUM Reporting Station
Moderate Rain Moderate Rain  
Wind Chill: 51°   Ceiling: 400
Heat Index: 51°   Visibility: 5mi
Dew Point: 50°   Wind: 13mph
Humidity: 97%   Direction: 30°NNE
Pressure: 30.07"   Gusts: NA
Location:  29.74°N, 90.81°W
Report Text: KHUM 200255Z AUTO 03011KT 5SM RA OVC004 11/10 A3007 RMK AO2 P0006 60006 T01060102
Loading
Personal Weather Stations






























Interactive Weather Map New forecast layout! Learn more

10-Day Weather Forecast

Advertisements
Track Severe Weather on mobile